createdAt,value
2022-09-27T00:02:10.916Z,7.78
2022-09-27T00:06:22.753Z,8.60
2022-09-27T00:10:25.412Z,5.90
2022-09-27T00:14:27.735Z,5.80
2022-09-27T00:18:29.964Z,10.18
2022-09-27T00:22:32.548Z,3.38
2022-09-27T00:26:34.718Z,6.32
2022-09-27T00:30:42.258Z,7.07
2022-09-27T00:34:44.412Z,8.77
2022-09-27T00:38:47.083Z,8.18
2022-09-27T00:42:49.083Z,6.90
2022-09-27T00:47:15.885Z,8.23
2022-09-27T00:51:18.031Z,5.75
2022-09-27T00:55:25.784Z,7.10
2022-09-27T00:59:33.431Z,5.32
2022-09-27T01:03:49.094Z,6.20
2022-09-27T01:07:51.748Z,7.95
2022-09-27T01:12:02.879Z,12.93
2022-09-27T01:16:15.467Z,4.35
2022-09-27T01:20:39.345Z,10.27
2022-09-27T01:24:54.937Z,11.00
2022-09-27T01:29:11.991Z,4.90
2022-09-27T01:33:49.387Z,9.45
2022-09-27T01:38:01.325Z,4.32
2022-09-27T01:42:31.870Z,8.55
2022-09-27T01:46:44.120Z,7.13
2022-09-27T01:51:04.498Z,6.75
2022-09-27T01:55:12.048Z,7.90
2022-09-27T01:59:43.316Z,7.60
2022-09-27T02:04:13.784Z,6.72
2022-09-27T02:08:52.502Z,5.22
2022-09-27T02:13:13.072Z,5.78
2022-09-27T02:18:00.551Z,6.75
2022-09-27T02:22:35.565Z,10.32
2022-09-27T02:26:43.797Z,6.47
2022-09-27T02:30:45.951Z,9.23
2022-09-27T02:34:57.772Z,13.35
2022-09-27T02:39:00.646Z,9.57
2022-09-27T02:43:08.648Z,17.50
2022-09-27T02:47:47.707Z,15.20
2022-09-27T02:52:04.884Z,14.70
2022-09-27T02:56:22.257Z,14.40
2022-09-27T03:00:56.938Z,13.10
2022-09-27T03:05:26.471Z,12.18
2022-09-27T03:09:39.789Z,8.23
2022-09-27T03:14:06.865Z,12.57
2022-09-27T03:18:06.634Z,13.63
2022-09-27T03:22:17.753Z,8.18
2022-09-27T03:26:19.735Z,16.08
2022-09-27T03:30:21.802Z,10.30
2022-09-27T03:34:23.822Z,8.75
2022-09-27T03:38:26.489Z,8.52
2022-09-27T03:42:28.540Z,10.32
2022-09-27T03:46:30.891Z,7.13
2022-09-27T03:50:33.247Z,10.23
2022-09-27T03:54:35.262Z,7.85
2022-09-27T03:58:37.312Z,9.60
2022-09-27T04:02:40.824Z,8.68
2022-09-27T04:07:12.068Z,12.48
2022-09-27T04:11:15.384Z,10.90
2022-09-27T04:15:21.255Z,12.18
2022-09-27T04:19:26.506Z,11.85
2022-09-27T04:23:39.460Z,11.20
2022-09-27T04:27:46.439Z,9.27
2022-09-27T04:31:49.448Z,8.27
2022-09-27T04:36:28.566Z,12.20
2022-09-27T04:40:37.276Z,16.30
2022-09-27T04:44:39.435Z,17.45
2022-09-27T04:48:41.849Z,13.40
2022-09-27T04:52:44.243Z,22.38
2022-09-27T04:56:46.225Z,19.83
2022-09-27T05:00:49.180Z,19.48
2022-09-27T05:05:15.984Z,32.67
2022-09-27T05:09:20.075Z,32.28
2022-09-27T05:13:24.993Z,26.58
2022-09-27T05:17:27.734Z,36.75
2022-09-27T05:21:48.832Z,32.25
2022-09-27T05:25:51.034Z,30.80
2022-09-27T05:29:54.522Z,33.63
2022-09-27T05:34:03.052Z,35.92
2022-09-27T05:38:14.176Z,27.35
2022-09-27T05:42:21.616Z,24.48
2022-09-27T05:46:25.675Z,21.27
2022-09-27T05:50:29.844Z,22.83
2022-09-27T05:54:36.360Z,27.92
2022-09-27T05:58:42.293Z,19.75
2022-09-27T06:03:02.003Z,17.48
2022-09-27T06:07:39.534Z,16.45
2022-09-27T06:11:46.603Z,13.95
2022-09-27T06:15:53.166Z,14.20
2022-09-27T06:19:55.925Z,17.25
2022-09-27T06:24:02.127Z,21.08
2022-09-27T06:28:11.909Z,19.23
2022-09-27T06:32:19.353Z,13.15
2022-09-27T06:36:33.386Z,15.13
2022-09-27T06:40:36.403Z,16.83
2022-09-27T06:45:05.065Z,14.10
2022-09-27T06:49:10.398Z,12.50
2022-09-27T06:53:15.648Z,9.70
2022-09-27T06:57:37.928Z,12.50
2022-09-27T07:01:41.285Z,10.93
2022-09-27T07:06:05.482Z,11.27
2022-09-27T07:10:19.320Z,25.80
2022-09-27T07:14:27.798Z,13.27
2022-09-27T07:18:50.859Z,13.20
2022-09-27T07:23:11.191Z,10.73
2022-09-27T07:27:16.004Z,6.43
2022-09-27T07:31:19.320Z,5.53
2022-09-27T07:35:23.998Z,3.13
2022-09-27T07:39:26.875Z,4.30
2022-09-27T07:43:29.072Z,4.63
2022-09-27T07:47:33.374Z,9.43
2022-09-27T07:51:41.276Z,4.40
2022-09-27T07:56:03.803Z,8.07
2022-09-27T08:00:12.470Z,6.78
2022-09-27T08:04:17.382Z,4.43
2022-09-27T08:08:20.368Z,3.75
2022-09-27T08:12:25.277Z,7.13
2022-09-27T08:16:28.269Z,4.30
2022-09-27T08:20:50.506Z,4.85
2022-09-27T08:25:18.251Z,2.97
2022-09-27T08:29:41.770Z,4.47
2022-09-27T08:33:44.045Z,5.28
2022-09-27T08:37:54.255Z,5.38
2022-09-27T08:42:18.818Z,6.25
2022-09-27T08:46:54.099Z,5.65
2022-09-27T08:50:57.996Z,4.80
2022-09-27T08:55:04.635Z,5.60
2022-09-27T08:59:22.516Z,5.20
2022-09-27T09:03:35.602Z,6.88
2022-09-27T09:07:53.127Z,4.07
2022-09-27T09:12:43.190Z,7.00
2022-09-27T09:17:04.926Z,5.40
2022-09-27T09:21:35.223Z,3.70
2022-09-27T09:26:10.051Z,6.65
2022-09-27T09:30:34.898Z,2.03
2022-09-27T09:34:43.452Z,10.88
2022-09-27T09:38:51.055Z,5.82
2022-09-27T09:43:02.322Z,4.45
2022-09-27T09:47:15.388Z,3.60
2022-09-27T09:51:22.827Z,4.20
2022-09-27T09:55:36.478Z,4.60
2022-09-27T09:59:45.303Z,4.47
2022-09-27T10:03:47.999Z,7.88
2022-09-27T10:07:53.073Z,3.72
2022-09-27T10:11:56.010Z,3.95
2022-09-27T10:16:09.201Z,3.22
2022-09-27T10:20:21.737Z,5.10
2022-09-27T10:24:25.570Z,4.88
2022-09-27T10:28:47.496Z,5.45
2022-09-27T10:33:07.937Z,5.13
2022-09-27T10:37:24.268Z,3.15
2022-09-27T10:41:45.545Z,6.10
2022-09-27T10:46:13.368Z,6.65
2022-09-27T10:50:45.769Z,7.15
2022-09-27T10:55:14.810Z,6.03
2022-09-27T10:59:18.818Z,6.57
2022-09-27T11:03:21.258Z,5.90
2022-09-27T11:07:23.594Z,4.55
2022-09-27T11:11:39.046Z,4.75
2022-09-27T11:16:11.157Z,6.75
2022-09-27T11:20:39.871Z,2.97
2022-09-27T11:25:26.328Z,3.03
2022-09-27T11:29:51.967Z,4.70
2022-09-27T11:34:54.251Z,7.28
2022-09-27T11:39:05.225Z,5.35
2022-09-27T11:43:20.675Z,7.40
2022-09-27T11:47:34.100Z,7.47
2022-09-27T11:51:55.174Z,4.93
2022-09-27T11:56:19.002Z,4.97
2022-09-27T12:00:24.536Z,2.28
2022-09-27T12:05:20.629Z,3.25
2022-09-27T12:09:36.408Z,6.45
2022-09-27T12:13:51.945Z,6.22
2022-09-27T12:18:00.652Z,11.35
2022-09-27T12:34:54.516Z,5.45
2022-09-27T12:39:06.246Z,7.93
2022-09-27T12:43:33.658Z,7.70
2022-09-27T12:47:59.554Z,8.52
2022-09-27T12:52:09.333Z,10.02
2022-09-27T12:56:42.608Z,6.57
2022-09-27T13:01:16.005Z,6.65
2022-09-27T13:05:39.979Z,7.50
2022-09-27T13:09:49.592Z,7.28
2022-09-27T13:14:02.385Z,7.57
2022-09-27T13:18:30.536Z,7.18
2022-09-27T13:22:43.415Z,9.43
2022-09-27T13:27:45.004Z,7.72
2022-09-27T13:32:25.132Z,8.68
2022-09-27T13:36:47.789Z,3.65
2022-09-27T13:41:17.765Z,9.30
2022-09-27T13:45:55.345Z,4.47
2022-09-27T13:50:13.932Z,5.50
2022-09-27T13:54:51.315Z,7.95
2022-09-27T13:59:06.513Z,8.27
2022-09-27T14:03:28.997Z,10.98
2022-09-27T14:07:42.562Z,9.23
2022-09-27T14:11:56.817Z,6.90
2022-09-27T14:16:05.194Z,15.63
2022-09-27T14:20:35.668Z,5.90
2022-09-27T14:24:46.319Z,5.05
2022-09-27T14:29:16.746Z,5.05
2022-09-27T14:38:37.551Z,6.03
2022-09-27T14:43:02.182Z,11.35
2022-09-27T14:47:10.078Z,9.88
2022-09-27T14:51:38.538Z,7.30
2022-09-27T14:55:45.835Z,7.90
2022-09-27T14:59:51.587Z,4.28
2022-09-27T15:03:53.781Z,5.93
2022-09-27T15:08:02.057Z,5.15
2022-09-27T15:12:05.494Z,5.28
2022-09-27T15:16:20.385Z,9.27
2022-09-27T15:20:35.302Z,7.82
2022-09-27T15:24:37.385Z,5.93
2022-09-27T15:28:44.186Z,5.45
2022-09-27T15:32:56.047Z,6.47
2022-09-27T15:37:25.733Z,7.90
2022-09-27T15:42:07.478Z,6.25
2022-09-27T15:46:26.289Z,5.93
2022-09-27T15:50:30.468Z,2.75
2022-09-27T15:58:37.498Z,6.22
2022-09-27T16:06:44.269Z,6.95
2022-09-27T16:10:51.669Z,6.10
2022-09-27T16:14:53.714Z,17.02
2022-09-27T16:18:56.158Z,4.50
2022-09-27T16:22:58.518Z,7.35
2022-09-27T16:27:00.635Z,4.82
2022-09-27T16:31:05.057Z,4.50
2022-09-27T16:35:07.398Z,5.32
2022-09-27T16:39:13.757Z,9.23
2022-09-27T16:43:16.672Z,5.32
2022-09-27T16:47:18.818Z,5.05
2022-09-27T16:51:40.440Z,4.88
2022-09-27T16:55:42.607Z,3.80
2022-09-27T16:59:46.289Z,15.85
2022-09-27T17:03:54.446Z,9.38
2022-09-27T17:07:59.221Z,4.85
2022-09-27T17:12:01.557Z,5.47
2022-09-27T17:16:05.465Z,6.80
2022-09-27T17:20:08.431Z,6.97
2022-09-27T17:24:11.015Z,6.88
2022-09-27T17:28:13.154Z,7.20
2022-09-27T17:32:15.323Z,12.18
2022-09-27T17:36:22.842Z,8.20
2022-09-27T17:40:26.444Z,6.35
2022-09-27T17:44:28.742Z,9.95
2022-09-27T17:48:49.360Z,21.38
2022-09-27T17:52:54.383Z,12.95
2022-09-27T17:56:58.076Z,7.70
2022-09-27T18:01:07.869Z,9.27
2022-09-27T18:05:12.818Z,14.50
2022-09-27T18:09:18.288Z,13.10
2022-09-27T18:13:22.826Z,7.70
2022-09-27T18:17:25.036Z,7.25
2022-09-27T18:21:28.417Z,38.70
2022-09-27T18:25:30.453Z,8.15
2022-09-27T18:29:36.180Z,6.85
2022-09-27T18:33:41.242Z,6.55
2022-09-27T18:37:47.844Z,11.27
2022-09-27T18:45:53.118Z,7.75
2022-09-27T18:49:55.193Z,13.75
2022-09-27T18:54:01.331Z,5.82
2022-09-27T18:58:04.435Z,11.88
2022-09-27T19:02:10.308Z,29.90
2022-09-27T19:10:22.165Z,12.32
2022-09-27T19:14:24.499Z,11.15
2022-09-27T19:18:34.630Z,10.27
2022-09-27T19:22:40.867Z,14.73
2022-09-27T19:26:45.553Z,10.00
2022-09-27T19:30:49.293Z,15.65
2022-09-27T19:34:55.574Z,13.27
2022-09-27T19:38:58.933Z,9.60
2022-09-27T19:43:01.778Z,8.10
2022-09-27T19:47:03.947Z,10.93
2022-09-27T19:51:06.986Z,5.70
2022-09-27T19:55:11.704Z,8.57
2022-09-27T19:59:15.863Z,12.70
2022-09-27T20:03:20.087Z,7.72
2022-09-27T20:11:31.522Z,22.95
2022-09-27T20:15:35.160Z,10.38
2022-09-27T20:19:41.151Z,9.38
2022-09-27T20:23:52.359Z,17.95
2022-09-27T20:27:56.882Z,14.82
2022-09-27T20:32:26.123Z,7.50
2022-09-27T20:36:26.514Z,8.88
2022-09-27T20:40:29.450Z,11.23
2022-09-27T20:44:32.242Z,8.45
2022-09-27T20:48:38.927Z,13.25
2022-09-27T20:52:42.809Z,16.23
2022-09-27T20:56:49.125Z,8.23
2022-09-27T21:00:52.980Z,14.38
2022-09-27T21:04:55.996Z,15.33
2022-09-27T21:09:00.646Z,10.77
2022-09-27T21:17:08.296Z,11.32
2022-09-27T21:21:13.177Z,10.50
2022-09-27T21:25:16.286Z,14.75
2022-09-27T21:29:18.978Z,10.95
2022-09-27T21:33:21.237Z,14.48
2022-09-27T21:37:24.269Z,13.40
2022-09-27T21:41:28.805Z,9.25
2022-09-27T21:45:32.091Z,11.60
2022-09-27T21:49:34.798Z,8.27
2022-09-27T21:53:39.773Z,9.75
2022-09-27T21:57:42.166Z,13.77
2022-09-27T22:01:45.994Z,14.45
2022-09-27T22:09:53.956Z,9.65
2022-09-27T22:13:57.720Z,6.38
2022-09-27T22:18:01.579Z,13.02
2022-09-27T22:22:03.951Z,12.00
2022-09-27T22:26:18.552Z,11.43
2022-09-27T22:34:29.239Z,8.50
2022-09-27T22:38:31.686Z,13.73
2022-09-27T22:42:34.131Z,8.40
2022-09-27T22:46:36.392Z,9.23
2022-09-27T22:50:39.689Z,17.27
2022-09-27T22:54:42.054Z,15.07
2022-09-27T22:58:44.636Z,10.85
2022-09-27T23:02:48.252Z,12.35
2022-09-27T23:06:50.813Z,11.37
2022-09-27T23:10:53.728Z,11.32
2022-09-27T23:14:59.450Z,13.80
2022-09-27T23:19:04.431Z,10.57
2022-09-27T23:23:15.832Z,9.30
2022-09-27T23:27:40.129Z,8.85
2022-09-27T23:31:45.100Z,7.35
2022-09-27T23:35:52.545Z,14.68
2022-09-27T23:40:00.210Z,7.43
2022-09-27T23:44:12.132Z,9.73
2022-09-27T23:48:18.916Z,9.20
2022-09-27T23:52:29.174Z,6.07
